sensor_id;sensor_type;location;lat;lon;timestamp;pressure;altitude;pressure_sealevel;temperature;humidity
40794;BME280;26502;51.886;15.604;2024-01-15T00:00:13;98615.39;;;0.24;92.76
40794;BME280;26502;51.886;15.604;2024-01-15T00:05:59;98599.30;;;0.26;92.46
40794;BME280;26502;51.886;15.604;2024-01-15T00:11:26;98588.09;;;0.27;92.27
40794;BME280;26502;51.886;15.604;2024-01-15T00:16:52;98578.58;;;0.30;92.15
40794;BME280;26502;51.886;15.604;2024-01-15T00:22:23;98573.85;;;0.32;92.10
40794;BME280;26502;51.886;15.604;2024-01-15T00:27:49;98564.61;;;0.31;91.91
40794;BME280;26502;51.886;15.604;2024-01-15T00:33:15;98558.99;;;0.32;91.96
40794;BME280;26502;51.886;15.604;2024-01-15T00:38:41;98541.19;;;0.32;91.76
40794;BME280;26502;51.886;15.604;2024-01-15T00:44:07;98540.65;;;0.33;91.48
40794;BME280;26502;51.886;15.604;2024-01-15T00:49:33;98534.33;;;0.34;91.34
40794;BME280;26502;51.886;15.604;2024-01-15T00:54:59;98524.61;;;0.38;90.99
40794;BME280;26502;51.886;15.604;2024-01-15T01:00:25;98520.17;;;0.34;90.80
40794;BME280;26502;51.886;15.604;2024-01-15T01:05:51;98519.13;;;0.34;90.77
40794;BME280;26502;51.886;15.604;2024-01-15T01:11:17;98513.66;;;0.37;90.67
40794;BME280;26502;51.886;15.604;2024-01-15T01:16:43;98508.77;;;0.37;90.64
40794;BME280;26502;51.886;15.604;2024-01-15T01:22:09;98498.14;;;0.36;90.53
40794;BME280;26502;51.886;15.604;2024-01-15T01:27:36;98490.48;;;0.35;90.40
40794;BME280;26502;51.886;15.604;2024-01-15T01:33:02;98487.99;;;0.29;90.47
40794;BME280;26502;51.886;15.604;2024-01-15T01:38:28;98477.65;;;0.25;90.66
40794;BME280;26502;51.886;15.604;2024-01-15T01:43:54;98469.67;;;0.23;90.72
40794;BME280;26502;51.886;15.604;2024-01-15T01:49:19;98457.31;;;0.21;90.86
40794;BME280;26502;51.886;15.604;2024-01-15T01:54:46;98455.91;;;0.22;90.92
40794;BME280;26502;51.886;15.604;2024-01-15T02:00:14;98447.71;;;0.22;90.82
40794;BME280;26502;51.886;15.604;2024-01-15T02:05:41;98445.08;;;0.22;90.79
40794;BME280;26502;51.886;15.604;2024-01-15T02:11:09;98421.85;;;0.22;90.82
40794;BME280;26502;51.886;15.604;2024-01-15T02:16:35;98418.48;;;0.24;90.59
40794;BME280;26502;51.886;15.604;2024-01-15T02:22:00;98412.16;;;0.25;90.47
40794;BME280;26502;51.886;15.604;2024-01-15T02:27:26;98404.80;;;0.27;90.40
40794;BME280;26502;51.886;15.604;2024-01-15T02:32:53;98403.08;;;0.26;90.16
40794;BME280;26502;51.886;15.604;2024-01-15T02:38:19;98394.15;;;0.21;90.24
40794;BME280;26502;51.886;15.604;2024-01-15T02:43:45;98388.04;;;0.20;90.28
40794;BME280;26502;51.886;15.604;2024-01-15T02:49:11;98377.75;;;0.20;90.27
40794;BME280;26502;51.886;15.604;2024-01-15T02:54:37;98370.84;;;0.24;89.86
40794;BME280;26502;51.886;15.604;2024-01-15T03:00:04;98367.12;;;0.26;89.65
40794;BME280;26502;51.886;15.604;2024-01-15T03:05:31;98360.80;;;0.21;89.80
40794;BME280;26502;51.886;15.604;2024-01-15T03:10:57;98352.80;;;0.19;90.02
40794;BME280;26502;51.886;15.604;2024-01-15T03:16:25;98356.41;;;0.15;90.15
40794;BME280;26502;51.886;15.604;2024-01-15T03:21:52;98356.06;;;0.08;90.26
40794;BME280;26502;51.886;15.604;2024-01-15T03:27:19;98346.40;;;0.05;90.47
40794;BME280;26502;51.886;15.604;2024-01-15T03:32:45;98344.78;;;0.00;90.67
40794;BME280;26502;51.886;15.604;2024-01-15T03:38:12;98335.56;;;-0.02;91.00
40794;BME280;26502;51.886;15.604;2024-01-15T03:43:38;98337.80;;;-0.07;91.31
40794;BME280;26502;51.886;15.604;2024-01-15T03:49:05;98339.45;;;-0.16;92.03
40794;BME280;26502;51.886;15.604;2024-01-15T03:54:31;98344.64;;;-0.21;92.39
40794;BME280;26502;51.886;15.604;2024-01-15T03:59:57;98345.45;;;-0.25;92.51
40794;BME280;26502;51.886;15.604;2024-01-15T04:05:23;98345.64;;;-0.26;92.47
40794;BME280;26502;51.886;15.604;2024-01-15T04:10:49;98347.88;;;-0.18;92.52
40794;BME280;26502;51.886;15.604;2024-01-15T04:16:15;98345.08;;;-0.18;92.42
40794;BME280;26502;51.886;15.604;2024-01-15T04:21:41;98344.90;;;-0.18;92.50
40794;BME280;26502;51.886;15.604;2024-01-15T04:27:08;98333.09;;;-0.20;92.56
40794;BME280;26502;51.886;15.604;2024-01-15T04:32:34;98340.10;;;-0.21;92.64
40794;BME280;26502;51.886;15.604;2024-01-15T04:38:00;98340.98;;;-0.21;92.51
40794;BME280;26502;51.886;15.604;2024-01-15T04:43:26;98329.50;;;-0.16;92.51
40794;BME280;26502;51.886;15.604;2024-01-15T04:48:52;98316.00;;;-0.13;92.37
40794;BME280;26502;51.886;15.604;2024-01-15T04:54:18;98315.45;;;-0.12;92.03
40794;BME280;26502;51.886;15.604;2024-01-15T04:59:45;98313.81;;;-0.10;91.80
40794;BME280;26502;51.886;15.604;2024-01-15T05:05:11;98312.13;;;-0.12;91.61
40794;BME280;26502;51.886;15.604;2024-01-15T05:10:40;98309.95;;;-0.15;91.59
40794;BME280;26502;51.886;15.604;2024-01-15T05:16:06;98299.52;;;-0.11;90.79
40794;BME280;26502;51.886;15.604;2024-01-15T05:21:32;98295.80;;;-0.09;90.04
40794;BME280;26502;51.886;15.604;2024-01-15T05:26:59;98294.04;;;-0.08;89.36
40794;BME280;26502;51.886;15.604;2024-01-15T05:32:25;98293.30;;;-0.06;89.17
40794;BME280;26502;51.886;15.604;2024-01-15T05:37:51;98284.01;;;-0.05;88.38
40794;BME280;26502;51.886;15.604;2024-01-15T05:43:17;98280.19;;;-0.06;88.10
40794;BME280;26502;51.886;15.604;2024-01-15T05:48:43;98278.44;;;-0.05;87.73
40794;BME280;26502;51.886;15.604;2024-01-15T05:54:09;98281.55;;;-0.04;87.16
40794;BME280;26502;51.886;15.604;2024-01-15T05:59:36;98287.20;;;0.00;86.82
40794;BME280;26502;51.886;15.604;2024-01-15T06:05:02;98284.66;;;0.03;86.18
40794;BME280;26502;51.886;15.604;2024-01-15T06:10:28;98289.14;;;0.06;85.75
40794;BME280;26502;51.886;15.604;2024-01-15T06:15:54;98293.99;;;0.06;85.46
40794;BME280;26502;51.886;15.604;2024-01-15T06:21:20;98295.12;;;0.10;84.75
40794;BME280;26502;51.886;15.604;2024-01-15T06:26:48;98299.39;;;0.13;84.35
40794;BME280;26502;51.886;15.604;2024-01-15T06:32:14;98302.30;;;0.15;84.19
40794;BME280;26502;51.886;15.604;2024-01-15T06:37:40;98303.52;;;0.15;84.21
40794;BME280;26502;51.886;15.604;2024-01-15T06:43:07;98300.14;;;0.18;83.70
40794;BME280;26502;51.886;15.604;2024-01-15T06:48:32;98301.52;;;0.19;83.46
40794;BME280;26502;51.886;15.604;2024-01-15T06:53:58;98307.05;;;0.20;83.37
40794;BME280;26502;51.886;15.604;2024-01-15T06:59:24;98304.12;;;0.19;83.53
40794;BME280;26502;51.886;15.604;2024-01-15T07:04:52;98298.85;;;0.20;83.19
40794;BME280;26502;51.886;15.604;2024-01-15T07:10:19;98302.33;;;0.26;82.48
40794;BME280;26502;51.886;15.604;2024-01-15T07:15:45;98298.05;;;0.29;82.25
40794;BME280;26502;51.886;15.604;2024-01-15T07:21:11;98305.04;;;0.29;82.05
40794;BME280;26502;51.886;15.604;2024-01-15T07:26:37;98309.27;;;0.28;82.08
40794;BME280;26502;51.886;15.604;2024-01-15T07:32:05;98301.61;;;0.33;81.48
40794;BME280;26502;51.886;15.604;2024-01-15T07:37:32;98312.63;;;0.39;81.00
40794;BME280;26502;51.886;15.604;2024-01-15T07:42:58;98311.33;;;0.41;80.87
40794;BME280;26502;51.886;15.604;2024-01-15T07:48:24;98308.89;;;0.47;80.45
40794;BME280;26502;51.886;15.604;2024-01-15T07:53:50;98317.15;;;0.52;80.31
40794;BME280;26502;51.886;15.604;2024-01-15T07:59:16;98328.74;;;0.43;80.62
40794;BME280;26502;51.886;15.604;2024-01-15T08:04:42;98319.54;;;0.41;80.80
40794;BME280;26502;51.886;15.604;2024-01-15T08:10:09;98313.83;;;0.40;80.92
40794;BME280;26502;51.886;15.604;2024-01-15T08:15:35;98309.66;;;0.45;80.70
40794;BME280;26502;51.886;15.604;2024-01-15T08:21:02;98303.48;;;0.53;79.93
40794;BME280;26502;51.886;15.604;2024-01-15T08:26:28;98310.48;;;0.58;79.46
40794;BME280;26502;51.886;15.604;2024-01-15T08:31:54;98308.12;;;0.55;79.90
40794;BME280;26502;51.886;15.604;2024-01-15T08:37:20;98309.25;;;0.59;79.82
40794;BME280;26502;51.886;15.604;2024-01-15T08:42:46;98305.27;;;0.57;79.47
40794;BME280;26502;51.886;15.604;2024-01-15T08:48:12;98309.55;;;0.60;79.58
40794;BME280;26502;51.886;15.604;2024-01-15T08:53:38;98304.70;;;0.76;78.88
40794;BME280;26502;51.886;15.604;2024-01-15T08:59:04;98301.48;;;0.84;78.08
40794;BME280;26502;51.886;15.604;2024-01-15T09:04:30;98308.06;;;0.86;77.99
40794;BME280;26502;51.886;15.604;2024-01-15T09:09:56;98317.06;;;0.89;77.91
40794;BME280;26502;51.886;15.604;2024-01-15T09:15:23;98319.98;;;0.91;77.82
40794;BME280;26502;51.886;15.604;2024-01-15T09:20:49;98320.40;;;0.94;77.55
40794;BME280;26502;51.886;15.604;2024-01-15T09:26:16;98324.62;;;0.98;76.63
40794;BME280;26502;51.886;15.604;2024-01-15T09:31:42;98333.38;;;0.98;76.84
40794;BME280;26502;51.886;15.604;2024-01-15T09:37:08;98329.48;;;1.00;76.54
40794;BME280;26502;51.886;15.604;2024-01-15T09:42:34;98326.48;;;1.01;76.16
40794;BME280;26502;51.886;15.604;2024-01-15T09:48:00;98334.63;;;1.09;75.98
40794;BME280;26502;51.886;15.604;2024-01-15T09:53:26;98317.77;;;1.22;75.48
40794;BME280;26502;51.886;15.604;2024-01-15T09:58:55;98329.17;;;1.31;75.37
40794;BME280;26502;51.886;15.604;2024-01-15T10:04:21;98328.80;;;1.27;74.74
40794;BME280;26502;51.886;15.604;2024-01-15T10:09:48;98328.72;;;1.30;74.64
40794;BME280;26502;51.886;15.604;2024-01-15T10:15:14;98322.89;;;1.42;74.19
40794;BME280;26502;51.886;15.604;2024-01-15T10:20:40;98319.36;;;1.43;73.45
40794;BME280;26502;51.886;15.604;2024-01-15T10:26:07;98334.59;;;1.32;74.17
40794;BME280;26502;51.886;15.604;2024-01-15T10:31:34;98331.80;;;1.21;74.82
40794;BME280;26502;51.886;15.604;2024-01-15T10:37:00;98334.65;;;1.18;75.14
40794;BME280;26502;51.886;15.604;2024-01-15T10:42:27;98329.23;;;1.35;74.45
40794;BME280;26502;51.886;15.604;2024-01-15T10:47:54;98326.17;;;1.59;73.43
40794;BME280;26502;51.886;15.604;2024-01-15T10:53:25;98315.88;;;1.78;73.81
40794;BME280;26502;51.886;15.604;2024-01-15T10:58:53;98317.67;;;1.67;73.20
40794;BME280;26502;51.886;15.604;2024-01-15T11:04:20;98317.92;;;1.60;73.01
40794;BME280;26502;51.886;15.604;2024-01-15T11:09:47;98321.23;;;1.49;73.13
40794;BME280;26502;51.886;15.604;2024-01-15T11:15:20;98316.38;;;1.43;73.38
40794;BME280;26502;51.886;15.604;2024-01-15T11:21:21;98325.82;;;1.38;73.69
40794;BME280;26502;51.886;15.604;2024-01-15T11:26:48;98319.10;;;1.40;73.90
40794;BME280;26502;51.886;15.604;2024-01-15T11:32:14;98321.27;;;1.59;73.70
40794;BME280;26502;51.886;15.604;2024-01-15T11:37:58;98320.83;;;1.67;73.30
40794;BME280;26502;51.886;15.604;2024-01-15T11:43:25;98315.87;;;1.63;73.18
40794;BME280;26502;51.886;15.604;2024-01-15T11:48:56;98304.17;;;1.63;73.09
40794;BME280;26502;51.886;15.604;2024-01-15T11:54:32;98312.17;;;1.64;72.82
40794;BME280;26502;51.886;15.604;2024-01-15T11:59:59;98301.42;;;1.61;73.02
40794;BME280;26502;51.886;15.604;2024-01-15T12:05:25;98315.56;;;1.58;73.03
40794;BME280;26502;51.886;15.604;2024-01-15T12:10:51;98297.06;;;1.56;72.93
40794;BME280;26502;51.886;15.604;2024-01-15T12:16:17;98307.31;;;1.53;73.07
40794;BME280;26502;51.886;15.604;2024-01-15T12:21:44;98301.17;;;1.53;72.70
40794;BME280;26502;51.886;15.604;2024-01-15T12:27:10;98302.33;;;1.50;72.94
40794;BME280;26502;51.886;15.604;2024-01-15T12:32:37;98301.34;;;1.49;72.97
40794;BME280;26502;51.886;15.604;2024-01-15T12:38:03;98306.84;;;1.46;73.08
40794;BME280;26502;51.886;15.604;2024-01-15T12:43:31;98301.34;;;1.43;73.04
40794;BME280;26502;51.886;15.604;2024-01-15T12:49:18;98310.82;;;1.42;72.92
40794;BME280;26502;51.886;15.604;2024-01-15T12:54:45;98316.16;;;1.39;73.00
40794;BME280;26502;51.886;15.604;2024-01-15T13:00:13;98312.64;;;1.34;73.41
40794;BME280;26502;51.886;15.604;2024-01-15T13:05:40;98305.00;;;1.33;73.68
40794;BME280;26502;51.886;15.604;2024-01-15T13:11:09;98317.72;;;1.29;74.01
40794;BME280;26502;51.886;15.604;2024-01-15T13:16:35;98311.48;;;1.27;74.16
40794;BME280;26502;51.886;15.604;2024-01-15T13:22:01;98315.52;;;1.21;74.70
40794;BME280;26502;51.886;15.604;2024-01-15T13:27:31;98312.52;;;1.17;75.41
40794;BME280;26502;51.886;15.604;2024-01-15T13:32:59;98315.66;;;0.95;77.05
40794;BME280;26502;51.886;15.604;2024-01-15T13:38:29;98321.43;;;0.72;78.66
40794;BME280;26502;51.886;15.604;2024-01-15T13:44:00;98319.70;;;0.60;79.39
40794;BME280;26502;51.886;15.604;2024-01-15T13:49:26;98316.60;;;0.63;79.72
40794;BME280;26502;51.886;15.604;2024-01-15T13:54:52;98331.77;;;0.77;79.58
40794;BME280;26502;51.886;15.604;2024-01-15T14:00:19;98338.48;;;0.79;79.57
40794;BME280;26502;51.886;15.604;2024-01-15T14:05:45;98347.64;;;0.83;79.22
40794;BME280;26502;51.886;15.604;2024-01-15T14:11:13;98351.15;;;0.89;79.02
40794;BME280;26502;51.886;15.604;2024-01-15T14:16:39;98363.41;;;0.93;78.75
40794;BME280;26502;51.886;15.604;2024-01-15T14:22:07;98360.26;;;0.94;78.86
40794;BME280;26502;51.886;15.604;2024-01-15T14:27:33;98359.79;;;0.92;78.80
40794;BME280;26502;51.886;15.604;2024-01-15T14:32:59;98367.23;;;0.89;79.21
40794;BME280;26502;51.886;15.604;2024-01-15T14:38:25;98372.86;;;0.87;79.25
40794;BME280;26502;51.886;15.604;2024-01-15T14:43:56;98382.88;;;0.79;79.44
40794;BME280;26502;51.886;15.604;2024-01-15T14:49:25;98385.81;;;0.74;79.87
40794;BME280;26502;51.886;15.604;2024-01-15T14:54:51;98394.48;;;0.71;80.51
40794;BME280;26502;51.886;15.604;2024-01-15T15:00:18;98391.78;;;0.67;80.85
40794;BME280;26502;51.886;15.604;2024-01-15T15:05:43;98394.42;;;0.67;81.03
40794;BME280;26502;51.886;15.604;2024-01-15T15:11:10;98407.39;;;0.65;81.51
40794;BME280;26502;51.886;15.604;2024-01-15T15:16:36;98419.88;;;0.56;82.01
40794;BME280;26502;51.886;15.604;2024-01-15T15:22:02;98429.34;;;0.49;82.63
40794;BME280;26502;51.886;15.604;2024-01-15T15:27:28;98440.23;;;0.41;83.69
40794;BME280;26502;51.886;15.604;2024-01-15T15:32:54;98453.67;;;0.27;83.86
40794;BME280;26502;51.886;15.604;2024-01-15T15:38:21;98464.70;;;0.26;84.52
40794;BME280;26502;51.886;15.604;2024-01-15T15:43:47;98463.74;;;0.29;84.78
40794;BME280;26502;51.886;15.604;2024-01-15T15:49:13;98466.73;;;0.28;84.94
40794;BME280;26502;51.886;15.604;2024-01-15T15:54:40;98474.53;;;0.30;85.37
40794;BME280;26502;51.886;15.604;2024-01-15T16:00:09;98478.23;;;0.29;85.27
40794;BME280;26502;51.886;15.604;2024-01-15T16:05:38;98480.33;;;0.29;85.25
40794;BME280;26502;51.886;15.604;2024-01-15T16:11:05;98494.92;;;0.32;85.54
40794;BME280;26502;51.886;15.604;2024-01-15T16:16:32;98502.41;;;0.33;85.73
40794;BME280;26502;51.886;15.604;2024-01-15T16:21:58;98509.48;;;0.29;85.85
40794;BME280;26502;51.886;15.604;2024-01-15T16:27:24;98504.88;;;0.25;86.38
40794;BME280;26502;51.886;15.604;2024-01-15T16:32:51;98502.65;;;0.17;86.85
40794;BME280;26502;51.886;15.604;2024-01-15T16:38:17;98523.55;;;0.11;86.87
40794;BME280;26502;51.886;15.604;2024-01-15T16:43:43;98533.84;;;0.11;87.27
40794;BME280;26502;51.886;15.604;2024-01-15T16:49:09;98526.87;;;0.11;87.05
40794;BME280;26502;51.886;15.604;2024-01-15T16:54:36;98533.88;;;0.17;86.91
40794;BME280;26502;51.886;15.604;2024-01-15T17:00:02;98544.80;;;0.21;86.85
40794;BME280;26502;51.886;15.604;2024-01-15T17:05:30;98556.04;;;0.18;86.62
40794;BME280;26502;51.886;15.604;2024-01-15T17:10:56;98569.36;;;0.22;86.43
40794;BME280;26502;51.886;15.604;2024-01-15T17:16:23;98584.20;;;0.29;86.19
40794;BME280;26502;51.886;15.604;2024-01-15T17:21:49;98587.46;;;0.32;85.91
40794;BME280;26502;51.886;15.604;2024-01-15T17:27:18;98595.13;;;0.32;85.89
40794;BME280;26502;51.886;15.604;2024-01-15T17:32:44;98590.30;;;0.29;85.90
40794;BME280;26502;51.886;15.604;2024-01-15T17:38:10;98596.26;;;0.29;85.90
40794;BME280;26502;51.886;15.604;2024-01-15T17:43:36;98601.20;;;0.27;85.99
40794;BME280;26502;51.886;15.604;2024-01-15T17:49:02;98605.16;;;0.22;85.95
40794;BME280;26502;51.886;15.604;2024-01-15T17:54:28;98608.45;;;0.16;85.87
40794;BME280;26502;51.886;15.604;2024-01-15T17:59:55;98619.54;;;0.12;85.98
40794;BME280;26502;51.886;15.604;2024-01-15T18:05:21;98622.19;;;0.10;85.87
40794;BME280;26502;51.886;15.604;2024-01-15T18:10:48;98621.40;;;0.07;85.83
40794;BME280;26502;51.886;15.604;2024-01-15T18:16:14;98631.68;;;-0.01;85.75
40794;BME280;26502;51.886;15.604;2024-01-15T18:21:47;98643.20;;;-0.09;85.80
40794;BME280;26502;51.886;15.604;2024-01-15T18:33:20;98652.76;;;-0.14;86.17
40794;BME280;26502;51.886;15.604;2024-01-15T18:38:47;98660.48;;;-0.17;86.41
40794;BME280;26502;51.886;15.604;2024-01-15T18:44:13;98676.77;;;-0.20;86.47
40794;BME280;26502;51.886;15.604;2024-01-15T18:49:40;98682.00;;;-0.21;86.77
40794;BME280;26502;51.886;15.604;2024-01-15T18:55:08;98684.40;;;-0.18;86.92
40794;BME280;26502;51.886;15.604;2024-01-15T19:00:37;98686.65;;;-0.17;87.48
40794;BME280;26502;51.886;15.604;2024-01-15T19:06:04;98691.66;;;-0.23;87.68
40794;BME280;26502;51.886;15.604;2024-01-15T19:11:32;98705.56;;;-0.29;87.59
40794;BME280;26502;51.886;15.604;2024-01-15T19:16:58;98715.41;;;-0.33;87.82
40794;BME280;26502;51.886;15.604;2024-01-15T19:22:26;98718.67;;;-0.40;88.17
40794;BME280;26502;51.886;15.604;2024-01-15T19:27:52;98732.11;;;-0.40;88.21
40794;BME280;26502;51.886;15.604;2024-01-15T19:33:18;98741.81;;;-0.37;88.18
40794;BME280;26502;51.886;15.604;2024-01-15T19:38:45;98745.13;;;-0.36;88.20
40794;BME280;26502;51.886;15.604;2024-01-15T19:44:11;98744.56;;;-0.34;88.19
40794;BME280;26502;51.886;15.604;2024-01-15T19:49:37;98747.46;;;-0.31;88.11
40794;BME280;26502;51.886;15.604;2024-01-15T19:55:08;98755.40;;;-0.26;88.04
40794;BME280;26502;51.886;15.604;2024-01-15T20:00:35;98762.16;;;-0.24;87.97
40794;BME280;26502;51.886;15.604;2024-01-15T20:06:02;98769.10;;;-0.23;87.83
40794;BME280;26502;51.886;15.604;2024-01-15T20:11:35;98777.76;;;-0.19;87.86
40794;BME280;26502;51.886;15.604;2024-01-15T20:17:03;98787.46;;;-0.15;87.68
40794;BME280;26502;51.886;15.604;2024-01-15T20:22:30;98795.36;;;-0.18;87.37
40794;BME280;26502;51.886;15.604;2024-01-15T20:27:56;98809.20;;;-0.21;86.95
40794;BME280;26502;51.886;15.604;2024-01-15T20:33:25;98816.80;;;-0.26;86.81
40794;BME280;26502;51.886;15.604;2024-01-15T20:38:51;98826.66;;;-0.31;86.56
40794;BME280;26502;51.886;15.604;2024-01-15T20:44:18;98842.02;;;-0.32;86.38
40794;BME280;26502;51.886;15.604;2024-01-15T20:49:47;98850.35;;;-0.29;86.41
40794;BME280;26502;51.886;15.604;2024-01-15T20:55:14;98856.94;;;-0.28;86.29
40794;BME280;26502;51.886;15.604;2024-01-15T21:00:40;98859.60;;;-0.29;86.04
40794;BME280;26502;51.886;15.604;2024-01-15T21:06:06;98865.71;;;-0.29;86.00
40794;BME280;26502;51.886;15.604;2024-01-15T21:11:33;98861.84;;;-0.28;85.72
40794;BME280;26502;51.886;15.604;2024-01-15T21:16:59;98867.62;;;-0.29;85.50
40794;BME280;26502;51.886;15.604;2024-01-15T21:22:25;98871.84;;;-0.32;85.42
40794;BME280;26502;51.886;15.604;2024-01-15T21:27:53;98875.57;;;-0.34;85.29
40794;BME280;26502;51.886;15.604;2024-01-15T21:33:19;98876.58;;;-0.33;85.14
40794;BME280;26502;51.886;15.604;2024-01-15T21:38:45;98884.27;;;-0.35;84.88
40794;BME280;26502;51.886;15.604;2024-01-15T21:44:11;98892.38;;;-0.39;84.63
40794;BME280;26502;51.886;15.604;2024-01-15T21:49:37;98896.98;;;-0.44;84.44
40794;BME280;26502;51.886;15.604;2024-01-15T21:55:04;98906.34;;;-0.51;84.24
40794;BME280;26502;51.886;15.604;2024-01-15T22:00:31;98916.23;;;-0.59;84.12
40794;BME280;26502;51.886;15.604;2024-01-15T22:05:57;98924.74;;;-0.68;83.80
40794;BME280;26502;51.886;15.604;2024-01-15T22:11:22;98938.62;;;-0.75;83.82
40794;BME280;26502;51.886;15.604;2024-01-15T22:16:48;98943.69;;;-0.89;83.62
40794;BME280;26502;51.886;15.604;2024-01-15T22:22:14;98953.56;;;-0.97;83.51
40794;BME280;26502;51.886;15.604;2024-01-15T22:27:40;98960.77;;;-1.02;83.39
40794;BME280;26502;51.886;15.604;2024-01-15T22:33:06;98964.14;;;-1.08;83.24
40794;BME280;26502;51.886;15.604;2024-01-15T22:38:32;98973.29;;;-1.13;83.25
40794;BME280;26502;51.886;15.604;2024-01-15T22:43:58;98985.34;;;-1.17;83.15
40794;BME280;26502;51.886;15.604;2024-01-15T22:49:24;98996.77;;;-1.24;82.94
40794;BME280;26502;51.886;15.604;2024-01-15T22:54:57;99006.36;;;-1.27;82.92
40794;BME280;26502;51.886;15.604;2024-01-15T23:00:31;99022.02;;;-1.41;82.76
40794;BME280;26502;51.886;15.604;2024-01-15T23:05:59;99029.42;;;-1.50;82.93
40794;BME280;26502;51.886;15.604;2024-01-15T23:11:25;99039.90;;;-1.53;82.98
40794;BME280;26502;51.886;15.604;2024-01-15T23:16:51;99045.98;;;-1.52;83.05
40794;BME280;26502;51.886;15.604;2024-01-15T23:22:18;99055.95;;;-1.55;82.89
40794;BME280;26502;51.886;15.604;2024-01-15T23:27:44;99059.26;;;-1.57;82.94
40794;BME280;26502;51.886;15.604;2024-01-15T23:33:10;99061.89;;;-1.58;83.07
40794;BME280;26502;51.886;15.604;2024-01-15T23:38:38;99054.19;;;-1.54;83.01
40794;BME280;26502;51.886;15.604;2024-01-15T23:44:05;99049.26;;;-1.48;82.95
40794;BME280;26502;51.886;15.604;2024-01-15T23:49:31;99049.61;;;-1.48;82.59
40794;BME280;26502;51.886;15.604;2024-01-15T23:54:57;99064.00;;;-1.61;82.21
